sensor_id;sensor_type;location;lat;lon;timestamp;P1;durP1;ratioP1;P2;durP2;ratioP2
12072;SDS011;6098;49.004;8.372;2022-09-24T00:05:48;11.21;;;9.19;;
12072;SDS011;6098;49.004;8.372;2022-09-24T00:20:39;10.41;;;7.60;;
12072;SDS011;6098;49.004;8.372;2022-09-24T00:35:30;11.79;;;8.36;;
12072;SDS011;6098;49.004;8.372;2022-09-24T00:50:22;8.72;;;6.92;;
12072;SDS011;6098;49.004;8.372;2022-09-24T01:05:11;9.86;;;7.91;;
12072;SDS011;6098;49.004;8.372;2022-09-24T01:35:09;12.30;;;8.96;;
12072;SDS011;6098;49.004;8.372;2022-09-24T01:50:01;9.51;;;8.53;;
12072;SDS011;6098;49.004;8.372;2022-09-24T02:04:54;10.18;;;8.26;;
12072;SDS011;6098;49.004;8.372;2022-09-24T02:19:42;9.02;;;7.63;;
12072;SDS011;6098;49.004;8.372;2022-09-24T02:34:34;9.78;;;7.77;;
12072;SDS011;6098;49.004;8.372;2022-09-24T02:49:24;10.00;;;8.19;;
12072;SDS011;6098;49.004;8.372;2022-09-24T03:04:16;8.80;;;7.41;;
12072;SDS011;6098;49.004;8.372;2022-09-24T03:19:07;9.63;;;7.60;;
12072;SDS011;6098;49.004;8.372;2022-09-24T03:33:59;10.46;;;7.47;;
12072;SDS011;6098;49.004;8.372;2022-09-24T03:49:03;9.12;;;7.63;;
12072;SDS011;6098;49.004;8.372;2022-09-24T04:03:54;8.48;;;7.37;;
12072;SDS011;6098;49.004;8.372;2022-09-24T04:18:44;8.89;;;7.59;;
12072;SDS011;6098;49.004;8.372;2022-09-24T04:33:35;10.70;;;7.47;;
12072;SDS011;6098;49.004;8.372;2022-09-24T04:48:26;8.71;;;7.80;;
12072;SDS011;6098;49.004;8.372;2022-09-24T05:03:18;9.51;;;7.66;;
12072;SDS011;6098;49.004;8.372;2022-09-24T05:18:09;8.67;;;7.58;;
12072;SDS011;6098;49.004;8.372;2022-09-24T05:33:00;8.52;;;7.28;;
12072;SDS011;6098;49.004;8.372;2022-09-24T05:47:52;8.70;;;7.82;;
12072;SDS011;6098;49.004;8.372;2022-09-24T06:02:44;9.92;;;7.37;;
12072;SDS011;6098;49.004;8.372;2022-09-24T06:17:35;7.89;;;7.07;;
12072;SDS011;6098;49.004;8.372;2022-09-24T06:32:28;8.50;;;6.99;;
12072;SDS011;6098;49.004;8.372;2022-09-24T06:47:20;9.88;;;8.02;;
12072;SDS011;6098;49.004;8.372;2022-09-24T07:02:11;11.49;;;9.41;;
12072;SDS011;6098;49.004;8.372;2022-09-24T07:17:03;9.72;;;8.71;;
12072;SDS011;6098;49.004;8.372;2022-09-24T07:31:54;10.32;;;9.29;;
12072;SDS011;6098;49.004;8.372;2022-09-24T07:46:46;10.82;;;9.36;;
12072;SDS011;6098;49.004;8.372;2022-09-24T08:01:39;11.76;;;9.59;;
12072;SDS011;6098;49.004;8.372;2022-09-24T08:16:30;11.81;;;9.50;;
12072;SDS011;6098;49.004;8.372;2022-09-24T08:31:21;13.37;;;10.30;;
12072;SDS011;6098;49.004;8.372;2022-09-24T08:46:22;10.57;;;9.20;;
12072;SDS011;6098;49.004;8.372;2022-09-24T09:01:46;12.88;;;10.07;;
12072;SDS011;6098;49.004;8.372;2022-09-24T09:31:58;9.47;;;8.57;;
12072;SDS011;6098;49.004;8.372;2022-09-24T09:47:04;11.10;;;7.96;;
12072;SDS011;6098;49.004;8.372;2022-09-24T10:01:57;9.10;;;8.19;;
12072;SDS011;6098;49.004;8.372;2022-09-24T10:16:50;12.78;;;8.91;;
12072;SDS011;6098;49.004;8.372;2022-09-24T10:31:40;9.49;;;8.49;;
12072;SDS011;6098;49.004;8.372;2022-09-24T12:03:15;8.93;;;6.90;;
12072;SDS011;6098;49.004;8.372;2022-09-24T12:18:13;7.99;;;7.20;;
12072;SDS011;6098;49.004;8.372;2022-09-24T12:48:16;7.67;;;6.61;;
12072;SDS011;6098;49.004;8.372;2022-09-24T13:03:30;7.37;;;5.78;;
12072;SDS011;6098;49.004;8.372;2022-09-24T13:18:24;7.54;;;4.83;;
12072;SDS011;6098;49.004;8.372;2022-09-24T13:33:26;6.14;;;5.10;;
12072;SDS011;6098;49.004;8.372;2022-09-24T14:03:32;5.44;;;4.34;;
12072;SDS011;6098;49.004;8.372;2022-09-24T14:18:25;3.88;;;3.47;;
12072;SDS011;6098;49.004;8.372;2022-09-24T14:33:16;5.11;;;3.40;;
12072;SDS011;6098;49.004;8.372;2022-09-24T14:48:22;4.30;;;3.84;;
12072;SDS011;6098;49.004;8.372;2022-09-24T15:19:15;9.16;;;6.43;;
12072;SDS011;6098;49.004;8.372;2022-09-24T15:34:12;11.60;;;8.01;;
12072;SDS011;6098;49.004;8.372;2022-09-24T15:49:08;9.68;;;7.58;;
12072;SDS011;6098;49.004;8.372;2022-09-24T16:04:00;6.36;;;5.76;;
12072;SDS011;6098;49.004;8.372;2022-09-24T16:18:54;8.63;;;6.51;;
12072;SDS011;6098;49.004;8.372;2022-09-24T16:33:46;7.50;;;6.72;;
12072;SDS011;6098;49.004;8.372;2022-09-24T16:48:35;9.20;;;7.34;;
12072;SDS011;6098;49.004;8.372;2022-09-24T17:03:29;12.39;;;9.50;;
12072;SDS011;6098;49.004;8.372;2022-09-24T17:18:41;8.92;;;7.42;;
12072;SDS011;6098;49.004;8.372;2022-09-24T17:33:32;9.54;;;8.42;;
12072;SDS011;6098;49.004;8.372;2022-09-24T17:48:23;7.33;;;6.58;;
12072;SDS011;6098;49.004;8.372;2022-09-24T18:03:14;10.32;;;8.11;;
12072;SDS011;6098;49.004;8.372;2022-09-24T18:18:09;8.17;;;7.03;;
12072;SDS011;6098;49.004;8.372;2022-09-24T18:33:00;8.91;;;7.72;;
12072;SDS011;6098;49.004;8.372;2022-09-24T18:47:51;7.08;;;6.39;;
12072;SDS011;6098;49.004;8.372;2022-09-24T19:02:43;7.69;;;6.54;;
12072;SDS011;6098;49.004;8.372;2022-09-24T19:17:34;6.58;;;5.40;;
12072;SDS011;6098;49.004;8.372;2022-09-24T19:32:25;8.09;;;5.41;;
12072;SDS011;6098;49.004;8.372;2022-09-24T19:47:16;7.66;;;5.83;;
12072;SDS011;6098;49.004;8.372;2022-09-24T20:02:08;5.53;;;4.63;;
12072;SDS011;6098;49.004;8.372;2022-09-24T20:17:01;6.33;;;5.39;;
12072;SDS011;6098;49.004;8.372;2022-09-24T20:31:52;6.06;;;5.27;;
12072;SDS011;6098;49.004;8.372;2022-09-24T20:46:46;6.79;;;5.90;;
12072;SDS011;6098;49.004;8.372;2022-09-24T21:01:37;8.64;;;6.80;;
12072;SDS011;6098;49.004;8.372;2022-09-24T21:16:31;7.18;;;6.48;;
12072;SDS011;6098;49.004;8.372;2022-09-24T21:31:22;8.37;;;6.53;;
12072;SDS011;6098;49.004;8.372;2022-09-24T21:46:12;9.04;;;7.88;;
12072;SDS011;6098;49.004;8.372;2022-09-24T22:01:14;9.86;;;8.77;;
12072;SDS011;6098;49.004;8.372;2022-09-24T22:16:08;12.71;;;9.48;;
12072;SDS011;6098;49.004;8.372;2022-09-24T22:31:01;12.83;;;9.73;;
12072;SDS011;6098;49.004;8.372;2022-09-24T22:45:55;10.48;;;9.24;;
12072;SDS011;6098;49.004;8.372;2022-09-24T23:00:45;9.72;;;8.63;;
12072;SDS011;6098;49.004;8.372;2022-09-24T23:15:54;10.98;;;9.13;;
12072;SDS011;6098;49.004;8.372;2022-09-24T23:30:54;13.71;;;11.90;;
12072;SDS011;6098;49.004;8.372;2022-09-24T23:45:36;19.73;;;14.89;;
